Time;durP1;ratioP1;P1;durP2;ratioP2;P2;SDS_P1;SDS_P2;PMS_P1;PMS_P2;Temp;Humidity;BMP_temperature;BMP_pressure;BME280_temperature;BME280_humidity;BME280_pressure;Samples;Min_cycle;Max_cycle;Signal;HPM_P1;HPM_P2
2023/08/08 00:02:15;;;;;;;3.58;2.90;;;;;;;25.92;44.51;101368.25;4912237;28;96647;-78
2023/08/08 00:04:41;;;;;;;3.20;2.90;;;;;;;25.91;44.35;101364.66;4923377;28;98094;-78
2023/08/08 00:07:08;;;;;;;3.67;3.30;;;;;;;25.92;43.83;101369.13;4906650;28;96918;-78
2023/08/08 00:09:34;;;;;;;3.20;2.78;;;;;;;25.92;44.58;101368.25;4906847;28;96918;-78
2023/08/08 00:12:01;;;;;;;4.35;2.97;;;;;;;25.91;44.31;101364.66;4910550;28;97133;-78
2023/08/08 00:14:27;;;;;;;3.45;3.15;;;;;;;25.92;44.03;101371.03;4906607;28;96906;-78
2023/08/08 00:16:54;;;;;;;4.85;3.03;;;;;;;25.92;44.13;101365.50;4894294;28;99606;-78
2023/08/08 00:19:20;;;;;;;3.20;2.90;;;;;;;25.91;44.33;101361.06;4903259;28;96700;-78
2023/08/08 00:21:47;;;;;;;3.10;2.80;;;;;;;25.91;43.91;101355.56;4905708;28;97316;-78
2023/08/08 00:24:14;;;;;;;3.22;2.92;;;;;;;25.90;44.36;101351.94;4905445;28;96788;-78
2023/08/08 00:26:40;;;;;;;3.42;3.10;;;;;;;25.90;44.81;101348.34;4912915;28;96941;-78
2023/08/08 00:29:06;;;;;;;4.15;2.90;;;;;;;25.90;44.18;101351.94;4910151;28;96799;-78
2023/08/08 00:31:33;;;;;;;2.85;2.55;;;;;;;25.89;44.19;101349.41;4895387;28;97132;-78
2023/08/08 00:34:01;;;;;;;2.70;2.28;;;;;;;25.90;44.43;101348.34;4912143;28;96806;-78
2023/08/08 00:36:28;;;;;;;2.80;2.60;;;;;;;25.90;44.12;101356.59;4909835;28;96898;-78
2023/08/08 00:38:54;;;;;;;3.00;2.70;;;;;;;25.89;44.26;101358.50;4897793;28;96783;-78
2023/08/08 00:41:21;;;;;;;2.80;2.50;;;;;;;25.90;44.26;101351.09;4908868;28;96900;-78
2023/08/08 00:43:49;;;;;;;2.85;2.42;;;;;;;25.90;44.27;101353.84;4908068;28;98559;-78
2023/08/08 00:46:20;;;;;;;3.20;2.63;;;;;;;25.90;44.37;101351.09;4907112;28;97147;-78
2023/08/08 00:48:49;;;;;;;2.58;2.38;;;;;;;25.90;44.36;101351.94;4911644;28;97079;-78
2023/08/08 00:51:17;;;;;;;2.75;2.38;;;;;;;25.89;44.33;101350.25;4910764;28;97940;-78
2023/08/08 00:53:44;;;;;;;2.40;2.20;;;;;;;25.89;44.39;101338.38;4913012;28;98292;-78
2023/08/08 00:56:14;;;;;;;2.55;2.35;;;;;;;25.89;44.16;101336.50;4894482;28;98367;-78
2023/08/08 00:58:41;;;;;;;2.63;2.42;;;;;;;25.88;44.29;101336.69;4911797;28;96832;-78
2023/08/08 01:01:08;;;;;;;3.03;2.50;;;;;;;25.88;44.03;101331.19;4913198;28;96831;-78
2023/08/08 01:03:35;;;;;;;2.60;2.40;;;;;;;25.88;44.02;101336.69;4908468;28;96795;-78
2023/08/08 01:06:08;;;;;;;4.45;2.58;;;;;;;25.88;44.26;101343.03;4909670;28;96831;-78
2023/08/08 01:09:00;;;;;;;2.80;2.40;;;;;;;25.89;44.13;101339.25;4910098;28;96916;-78
2023/08/08 01:11:30;;;;;;;2.47;2.28;;;;;;;25.88;44.33;101342.19;4906897;28;97279;-78
2023/08/08 01:13:59;;;;;;;2.67;2.25;;;;;;;25.87;44.15;101333.09;4910721;28;97871;-78
2023/08/08 01:16:26;;;;;;;2.55;2.22;;;;;;;25.87;44.15;101329.47;4909036;28;97864;-78
2023/08/08 01:18:56;;;;;;;2.42;2.22;;;;;;;25.87;44.25;101337.72;4911206;28;97071;-77
2023/08/08 01:21:27;;;;;;;2.92;2.63;;;;;;;25.87;44.08;101332.22;4893400;28;97159;-78
2023/08/08 01:24:21;;;;;;;2.33;2.13;;;;;;;25.87;44.35;101334.97;4889005;28;96939;-78
2023/08/08 01:26:49;;;;;;;2.70;2.45;;;;;;;25.86;44.16;101336.88;4902612;28;97881;-78
2023/08/08 01:29:15;;;;;;;2.28;2.08;;;;;;;25.86;44.21;101341.53;4894984;28;96832;-78
2023/08/08 01:31:42;;;;;;;2.70;2.45;;;;;;;25.86;44.73;101339.63;4908098;28;96868;-78
2023/08/08 01:34:08;;;;;;;2.95;2.22;;;;;;;25.85;44.28;101329.69;4908239;28;99544;-78
2023/08/08 01:36:42;;;;;;;2.10;1.90;;;;;;;25.86;44.28;101330.53;4904066;28;96720;-78
2023/08/08 01:39:14;;;;;;;2.28;2.08;;;;;;;25.85;44.22;101326.94;4906303;28;96732;-78
2023/08/08 01:41:42;;;;;;;2.90;2.45;;;;;;;25.85;44.24;101332.44;4903393;28;97033;-78
2023/08/08 01:44:10;;;;;;;2.30;2.10;;;;;;;25.85;44.23;101324.16;4906073;28;96869;-78
2023/08/08 01:46:38;;;;;;;2.35;1.90;;;;;;;25.85;44.14;101324.16;4909619;28;99673;-78
2023/08/08 01:49:05;;;;;;;2.70;1.98;;;;;;;25.85;44.05;101318.66;4908194;28;96611;-77
2023/08/08 01:51:31;;;;;;;2.20;2.00;;;;;;;25.85;44.39;101306.81;4906332;28;100016;-78
2023/08/08 01:53:58;;;;;;;2.15;1.80;;;;;;;25.85;44.36;101326.06;4921520;28;97734;-78
2023/08/08 01:56:25;;;;;;;2.15;1.95;;;;;;;25.84;44.38;101322.47;4906239;28;96847;-78
2023/08/08 01:58:51;;;;;;;3.22;1.83;;;;;;;25.84;44.65;101325.22;4908035;28;96946;-78
2023/08/08 02:01:18;;;;;;;2.25;1.80;;;;;;;25.84;44.41;101319.72;4909105;28;97290;-78
2023/08/08 02:03:45;;;;;;;3.08;1.83;;;;;;;25.84;44.23;101322.47;4910560;28;96973;-78
2023/08/08 02:06:11;;;;;;;2.28;1.70;;;;;;;25.84;44.13;101335.38;4907482;28;96827;-78
2023/08/08 02:08:38;;;;;;;2.85;2.10;;;;;;;25.84;43.93;101338.97;4908556;28;96889;-78
2023/08/08 02:11:04;;;;;;;2.50;1.98;;;;;;;25.84;44.16;101336.22;4908708;28;96808;-78
2023/08/08 02:13:31;;;;;;;2.05;1.85;;;;;;;25.84;44.11;101332.63;4908241;28;98062;-78
2023/08/08 02:15:58;;;;;;;2.50;2.08;;;;;;;25.84;44.05;101325.22;4922602;28;97816;-78
2023/08/08 02:18:25;;;;;;;1.90;1.70;;;;;;;25.84;44.22;101319.72;4904334;28;96984;-78
2023/08/08 02:20:52;;;;;;;2.05;1.83;;;;;;;25.84;44.18;101319.72;4902199;28;96859;-78
2023/08/08 02:23:18;;;;;;;1.65;1.55;;;;;;;25.84;44.30;101307.84;4891890;28;99010;-78
2023/08/08 02:25:45;;;;;;;2.30;1.65;;;;;;;25.84;44.33;101299.59;4908015;28;97529;-78
2023/08/08 02:28:11;;;;;;;2.85;1.88;;;;;;;25.83;43.83;101298.75;4910065;28;96754;-78
2023/08/08 02:30:38;;;;;;;2.08;1.77;;;;;;;25.83;43.95;101287.75;4894580;28;97014;-77
2023/08/08 02:33:05;;;;;;;1.75;1.60;;;;;;;25.83;44.60;101285.00;4905376;28;98524;-78
2023/08/08 02:35:33;;;;;;;1.77;1.60;;;;;;;25.83;44.27;101285.00;4908415;28;96732;-78
2023/08/08 02:38:00;;;;;;;1.75;1.65;;;;;;;25.84;44.18;101283.09;4893156;28;96941;-78
2023/08/08 02:40:26;;;;;;;1.67;1.58;;;;;;;25.83;44.30;101285.00;4908580;28;97226;-77
2023/08/08 02:42:53;;;;;;;1.65;1.55;;;;;;;25.83;44.10;101282.25;4908609;28;99876;-78
2023/08/08 02:45:20;;;;;;;1.83;1.40;;;;;;;25.83;44.27;101284.16;4908536;28;99150;-78
2023/08/08 02:47:47;;;;;;;2.58;1.90;;;;;;;25.82;44.36;101283.28;4907745;28;97154;-78
2023/08/08 02:50:13;;;;;;;1.60;1.50;;;;;;;25.82;44.06;101286.03;4908320;28;96875;-78
2023/08/08 02:52:40;;;;;;;2.22;1.52;;;;;;;25.81;44.24;101295.34;4908515;28;96864;-78
2023/08/08 02:55:07;;;;;;;2.00;1.50;;;;;;;25.82;44.08;101293.44;4909353;28;97425;-78
2023/08/08 02:57:35;;;;;;;1.63;1.52;;;;;;;25.81;44.16;101298.09;4909910;28;98488;-78
2023/08/08 03:00:03;;;;;;;1.63;1.52;;;;;;;25.80;44.05;101293.66;4894727;28;97037;-78
2023/08/08 03:02:35;;;;;;;1.67;1.42;;;;;;;25.81;44.10;101291.75;4909734;28;96809;-78
2023/08/08 03:05:02;;;;;;;2.00;1.65;;;;;;;25.81;44.17;101281.59;4910914;28;98867;-78
2023/08/08 03:07:29;;;;;;;1.50;1.35;;;;;;;25.81;43.78;101272.50;4908951;28;97567;-78
2023/08/08 03:09:55;;;;;;;1.70;1.60;;;;;;;25.81;44.08;101267.84;4910313;28;96703;-78
2023/08/08 03:12:22;;;;;;;1.65;1.55;;;;;;;25.79;44.19;101272.69;4909708;28;101200;-77
2023/08/08 03:14:51;;;;;;;1.70;1.40;;;;;;;25.81;44.14;101269.72;4906766;28;96888;-78
2023/08/08 03:17:17;;;;;;;1.33;1.23;;;;;;;25.80;44.21;101265.28;4911617;28;97529;-78
2023/08/08 03:19:44;;;;;;;1.70;1.60;;;;;;;25.80;44.18;101273.53;4894593;28;96600;-78
2023/08/08 03:22:11;;;;;;;1.50;1.40;;;;;;;25.79;44.15;101267.19;4907093;28;98185;-78
2023/08/08 03:24:37;;;;;;;2.60;1.50;;;;;;;25.79;43.89;101258.06;4907102;28;97472;-78
2023/08/08 03:27:05;;;;;;;2.10;1.30;;;;;;;25.79;44.26;101271.84;4905857;28;97685;-78
2023/08/08 03:29:31;;;;;;;1.85;1.67;;;;;;;25.80;44.29;101268.88;4909017;28;96782;-78
2023/08/08 03:31:58;;;;;;;1.80;1.50;;;;;;;25.79;44.25;101269.09;4896608;28;97843;-78
2023/08/08 03:34:28;;;;;;;1.80;1.50;;;;;;;25.79;44.05;101275.44;4893423;28;98214;-78
2023/08/08 03:36:56;;;;;;;1.42;1.10;;;;;;;25.79;43.97;101271.84;4909425;28;96938;-77
2023/08/08 03:39:23;;;;;;;1.50;1.40;;;;;;;25.79;44.29;101271.84;4907025;28;96739;-78
2023/08/08 03:41:49;;;;;;;2.22;1.40;;;;;;;25.78;44.01;101279.25;4905623;28;97071;-78
2023/08/08 03:44:17;;;;;;;1.50;1.40;;;;;;;25.78;44.22;101270.13;4908065;28;99443;-78
2023/08/08 03:46:44;;;;;;;1.80;1.40;;;;;;;25.79;44.11;101266.34;4908370;28;97209;-78
2023/08/08 03:49:12;;;;;;;1.23;1.13;;;;;;;25.78;43.96;101265.47;4909783;28;97418;-77
2023/08/08 03:51:39;;;;;;;1.60;1.40;;;;;;;25.78;44.06;101267.38;4903112;28;99005;-78
2023/08/08 03:54:05;;;;;;;1.73;1.30;;;;;;;25.78;44.13;101265.47;4911344;28;96735;-78
2023/08/08 03:56:32;;;;;;;1.48;1.10;;;;;;;25.78;44.24;101264.63;4910510;28;97206;-78
2023/08/08 03:58:59;;;;;;;1.30;1.20;;;;;;;25.77;44.18;101263.78;4912565;28;96933;-78
2023/08/08 04:01:25;;;;;;;1.52;1.42;;;;;;;25.78;44.14;101256.38;4911883;28;99058;-78
2023/08/08 04:03:52;;;;;;;1.27;1.17;;;;;;;25.77;43.91;101260.19;4912113;28;98745;-78
2023/08/08 04:06:19;;;;;;;1.70;1.27;;;;;;;25.78;44.25;101267.38;4911416;28;96635;-78
2023/08/08 04:08:45;;;;;;;1.35;1.20;;;;;;;25.77;44.14;101260.19;4911411;28;97095;-78
2023/08/08 04:11:12;;;;;;;1.20;1.10;;;;;;;25.76;44.15;101255.72;4911571;28;96812;-78
2023/08/08 04:13:38;;;;;;;1.40;1.02;;;;;;;25.76;44.22;101251.06;4894974;28;96892;-78
2023/08/08 04:16:05;;;;;;;1.30;1.20;;;;;;;25.76;44.10;101253.81;4912738;28;96815;-78
2023/08/08 04:18:31;;;;;;;1.73;1.20;;;;;;;25.76;44.00;101245.56;4912051;28;96741;-78
2023/08/08 04:20:58;;;;;;;1.23;1.13;;;;;;;25.75;43.87;101243.88;4909084;28;98056;-78
2023/08/08 04:23:25;;;;;;;1.30;1.17;;;;;;;25.75;44.17;101249.38;4908253;28;96685;-78
2023/08/08 04:25:53;;;;;;;1.35;1.25;;;;;;;25.76;44.12;101258.47;4906042;28;97240;-78
2023/08/08 04:28:19;;;;;;;1.20;1.00;;;;;;;25.75;44.11;101254.03;4911475;28;98035;-78
2023/08/08 04:30:46;;;;;;;1.48;1.38;;;;;;;25.75;43.96;101254.03;4911903;28;98104;-78
2023/08/08 04:33:12;;;;;;;1.30;1.20;;;;;;;25.75;44.02;101252.13;4908375;28;97854;-78
2023/08/08 04:35:39;;;;;;;1.27;1.10;;;;;;;25.76;44.04;101250.22;4913757;28;97402;-78
2023/08/08 04:38:05;;;;;;;1.20;1.10;;;;;;;25.76;44.19;101247.47;4911102;28;97136;-78
2023/08/08 04:40:32;;;;;;;2.08;1.10;;;;;;;25.74;44.11;101244.91;4909096;28;97480;-78
2023/08/08 04:42:59;;;;;;;2.03;1.20;;;;;;;25.75;44.16;101254.03;4895569;28;99715;-78
2023/08/08 04:45:27;;;;;;;1.50;1.20;;;;;;;25.74;43.85;101258.66;4910960;28;96780;-78
2023/08/08 04:47:53;;;;;;;1.10;1.00;;;;;;;25.75;43.79;101248.53;4907158;28;97137;-77
2023/08/08 04:50:20;;;;;;;1.40;1.20;;;;;;;25.74;44.07;101247.66;4909260;28;96749;-78
2023/08/08 04:52:46;;;;;;;1.98;1.20;;;;;;;25.75;44.31;101256.78;4906723;28;99118;-78
2023/08/08 04:55:13;;;;;;;1.20;1.00;;;;;;;25.75;44.16;101259.53;4907301;28;97326;-77
2023/08/08 04:57:39;;;;;;;1.40;1.20;;;;;;;25.74;44.27;101255.06;4911706;28;98089;-78
2023/08/08 05:00:08;;;;;;;1.27;0.90;;;;;;;25.74;44.10;101252.31;4912263;28;97129;-78
2023/08/08 05:02:35;;;;;;;1.38;0.90;;;;;;;25.73;43.91;101251.47;4913153;28;96755;-77
2023/08/08 05:05:03;;;;;;;1.20;1.10;;;;;;;25.73;43.94;101248.72;4912622;28;96996;-78
2023/08/08 05:07:30;;;;;;;1.30;1.00;;;;;;;25.74;44.09;101249.56;4911318;28;96972;-77
2023/08/08 05:09:57;;;;;;;1.42;0.95;;;;;;;25.72;43.91;101255.28;4910421;28;97947;-77
2023/08/08 05:12:23;;;;;;;1.20;1.00;;;;;;;25.73;44.06;101259.72;4911719;28;97057;-78
2023/08/08 05:14:51;;;;;;;1.50;1.10;;;;;;;25.73;44.00;101259.72;4912342;28;97090;-77
2023/08/08 05:17:18;;;;;;;1.02;0.90;;;;;;;25.73;44.18;101250.63;4911781;28;96748;-79
2023/08/08 05:19:45;;;;;;;1.42;1.00;;;;;;;25.73;44.10;101250.63;4911062;28;98147;-79
2023/08/08 05:22:11;;;;;;;0.93;0.82;;;;;;;25.72;43.88;101244.25;4908042;28;97452;-79
2023/08/08 05:24:38;;;;;;;1.65;1.00;;;;;;;25.73;43.83;101245.13;4905092;28;96727;-77
2023/08/08 05:27:05;;;;;;;2.08;1.00;;;;;;;25.73;44.33;101247.88;4912228;28;97825;-77
2023/08/08 05:29:31;;;;;;;1.02;0.90;;;;;;;25.72;43.98;101247.00;4910997;28;96844;-77
2023/08/08 05:31:58;;;;;;;1.38;1.10;;;;;;;25.73;44.20;101251.47;4899639;28;97714;-77
2023/08/08 05:34:25;;;;;;;1.52;0.80;;;;;;;25.72;43.97;101255.28;4901118;28;96744;-77
2023/08/08 05:36:52;;;;;;;1.08;0.98;;;;;;;25.74;44.17;101258.66;4908108;28;96924;-77
2023/08/08 05:39:52;;;;;;;1.00;0.90;;;;;;;25.73;44.04;101251.47;4905938;28;97945;-77
2023/08/08 05:42:19;;;;;;;1.10;0.95;;;;;;;25.72;43.92;101246.16;4905436;28;97489;-77
2023/08/08 05:44:46;;;;;;;1.17;1.00;;;;;;;25.72;44.20;101255.28;4907229;28;96849;-77
2023/08/08 05:47:12;;;;;;;1.35;0.90;;;;;;;25.72;43.99;101255.28;4911050;28;97632;-77
2023/08/08 05:49:42;;;;;;;1.60;1.08;;;;;;;25.72;44.10;101258.03;4909903;28;98235;-77
2023/08/08 05:52:09;;;;;;;1.38;1.02;;;;;;;25.72;44.06;101254.41;4910792;28;97308;-78
2023/08/08 05:54:36;;;;;;;1.20;1.10;;;;;;;25.73;44.11;101262.47;4906344;28;96805;-77
2023/08/08 05:57:03;;;;;;;1.17;0.93;;;;;;;25.72;44.02;101255.28;4909757;28;96968;-77
2023/08/08 05:59:29;;;;;;;1.20;1.10;;;;;;;25.73;44.04;101265.22;4904266;28;97122;-77
2023/08/08 06:01:59;;;;;;;1.70;1.23;;;;;;;25.73;44.05;101256.97;4907165;28;97288;-79
2023/08/08 06:04:26;;;;;;;1.00;0.90;;;;;;;25.73;43.98;101261.63;4902405;28;96958;-77
2023/08/08 06:06:53;;;;;;;1.83;0.80;;;;;;;25.73;44.04;101262.47;4895593;28;97172;-78
2023/08/08 06:09:19;;;;;;;1.33;1.20;;;;;;;25.72;43.99;101266.28;4902026;28;97710;-78
2023/08/08 06:11:46;;;;;;;1.25;1.08;;;;;;;25.74;44.15;101264.19;4908113;28;97055;-77
2023/08/08 06:14:13;;;;;;;0.98;0.80;;;;;;;25.73;43.80;101265.22;4909154;28;96845;-77
2023/08/08 06:16:39;;;;;;;1.25;0.98;;;;;;;25.74;44.26;101268.81;4910454;28;97250;-78
2023/08/08 06:19:06;;;;;;;1.05;0.90;;;;;;;25.75;44.08;101270.53;4903547;28;97758;-77
2023/08/08 06:21:32;;;;;;;1.10;0.90;;;;;;;25.74;44.41;101264.19;4907991;28;97059;-77
2023/08/08 06:23:59;;;;;;;1.20;0.88;;;;;;;25.74;43.66;101268.81;4899771;28;98359;-78
2023/08/08 06:26:25;;;;;;;1.42;0.82;;;;;;;25.74;44.16;101272.44;4901493;28;96948;-77
2023/08/08 06:28:52;;;;;;;1.45;0.90;;;;;;;25.74;44.13;101269.69;4911929;28;96896;-77
2023/08/08 06:31:19;;;;;;;1.15;0.90;;;;;;;25.75;44.29;101274.13;4922018;28;97649;-77
2023/08/08 06:33:46;;;;;;;1.13;0.90;;;;;;;25.74;44.02;101272.44;4900942;28;97177;-78
2023/08/08 06:36:12;;;;;;;1.10;0.98;;;;;;;25.75;43.96;101274.13;4900227;28;97437;-78
2023/08/08 06:38:39;;;;;;;1.58;0.82;;;;;;;25.76;44.27;101284.09;4875761;28;98077;-78
2023/08/08 06:41:05;;;;;;;2.10;1.08;;;;;;;25.76;44.05;101292.34;4892881;28;97652;-78
2023/08/08 06:43:32;;;;;;;1.23;0.85;;;;;;;25.76;43.89;101292.34;4891575;28;97588;-78
2023/08/08 06:45:58;;;;;;;1.40;0.93;;;;;;;25.77;44.20;101290.44;4891461;28;97114;-78
2023/08/08 06:48:25;;;;;;;1.20;0.73;;;;;;;25.77;43.96;101294.03;4905224;28;97221;-78
2023/08/08 06:50:52;;;;;;;1.50;1.00;;;;;;;25.76;43.79;101289.59;4903546;28;97973;-78
2023/08/08 06:53:18;;;;;;;1.30;0.80;;;;;;;25.76;44.00;101292.34;4902771;28;96762;-78
2023/08/08 06:55:45;;;;;;;1.20;0.80;;;;;;;25.77;44.13;101295.94;4906072;28;97107;-78
2023/08/08 06:58:11;;;;;;;1.52;0.88;;;;;;;25.77;43.90;101299.53;4907920;28;100474;-78
2023/08/08 07:00:38;;;;;;;1.33;0.90;;;;;;;25.78;44.06;101297.66;4892265;28;99137;-78
2023/08/08 07:03:05;;;;;;;1.40;0.88;;;;;;;25.77;44.09;101295.94;4906006;28;96819;-78
2023/08/08 07:05:32;;;;;;;0.95;0.75;;;;;;;25.77;44.10;101296.78;4910553;28;96751;-78
2023/08/08 07:07:58;;;;;;;1.15;0.77;;;;;;;25.77;43.98;101294.03;4899303;28;96825;-78
2023/08/08 07:10:25;;;;;;;1.65;0.90;;;;;;;25.77;44.01;101291.28;4908996;28;96772;-78
2023/08/08 07:12:52;;;;;;;2.40;1.00;;;;;;;25.78;43.98;101292.13;4889027;28;96773;-78
2023/08/08 07:15:19;;;;;;;1.45;0.88;;;;;;;25.79;44.05;101296.59;4906704;28;97281;-78
2023/08/08 07:17:45;;;;;;;2.50;1.00;;;;;;;25.78;44.31;101290.25;4907807;28;97739;-78
2023/08/08 07:20:15;;;;;;;2.20;0.80;;;;;;;25.78;44.14;101279.25;4901131;28;98856;-78
2023/08/08 07:22:42;;;;;;;1.08;0.70;;;;;;;25.79;44.07;101288.34;4902387;28;97228;-78
2023/08/08 07:25:08;;;;;;;2.88;1.05;;;;;;;25.78;44.00;101279.25;4907184;28;96935;-78
2023/08/08 07:27:35;;;;;;;1.42;0.90;;;;;;;25.78;44.14;101293.00;4908145;28;96911;-78
2023/08/08 07:30:02;;;;;;;2.65;0.90;;;;;;;25.79;44.18;101297.44;4901144;28;97352;-78
2023/08/08 07:32:29;;;;;;;1.27;0.80;;;;;;;25.78;44.06;101287.50;4900209;28;97306;-78
2023/08/08 07:35:01;;;;;;;2.00;1.00;;;;;;;25.78;43.94;101287.50;4905987;28;96912;-78
2023/08/08 07:37:27;;;;;;;1.27;0.90;;;;;;;25.79;44.14;101280.09;4907186;28;97484;-78
2023/08/08 07:39:54;;;;;;;2.08;1.08;;;;;;;25.79;44.29;101286.44;4912505;28;97214;-78
2023/08/08 07:42:21;;;;;;;1.30;0.90;;;;;;;25.79;44.01;101286.44;4902277;28;96793;-78
2023/08/08 07:44:47;;;;;;;1.73;1.02;;;;;;;25.79;44.32;101278.19;4908588;28;96925;-78
2023/08/08 07:47:14;;;;;;;1.45;1.10;;;;;;;25.80;43.81;101277.13;4910601;28;97359;-78
2023/08/08 07:49:40;;;;;;;1.75;1.10;;;;;;;25.81;44.23;101286.25;4908863;28;96761;-78
2023/08/08 07:52:07;;;;;;;1.77;1.10;;;;;;;25.82;44.14;101282.44;4907039;28;97668;-78
2023/08/08 07:54:34;;;;;;;1.70;0.98;;;;;;;25.81;44.25;101278.00;4909488;28;96743;-78
2023/08/08 07:57:01;;;;;;;1.90;0.90;;;;;;;25.81;44.22;101270.59;4909972;28;97258;-78
2023/08/08 07:59:27;;;;;;;1.60;0.98;;;;;;;25.81;44.05;101270.59;4906625;28;98287;-78
2023/08/08 08:01:54;;;;;;;2.35;0.85;;;;;;;25.81;44.02;101284.34;4912373;28;96841;-78
2023/08/08 08:04:20;;;;;;;1.58;0.75;;;;;;;25.82;44.13;101271.44;4910894;28;96822;-78
2023/08/08 08:06:47;;;;;;;2.95;1.10;;;;;;;25.81;44.05;101278.84;4912763;28;98263;-78
2023/08/08 08:09:13;;;;;;;1.67;0.90;;;;;;;25.82;43.92;101276.94;4903527;28;97020;-78
2023/08/08 08:11:40;;;;;;;2.03;0.90;;;;;;;25.82;44.06;101280.53;4914377;28;96888;-78
2023/08/08 08:14:07;;;;;;;1.83;1.00;;;;;;;25.83;44.13;101273.13;4909812;28;96730;-78
2023/08/08 08:16:34;;;;;;;2.15;1.08;;;;;;;25.84;44.48;101280.34;4912073;28;97397;-78
2023/08/08 08:19:01;;;;;;;2.15;1.05;;;;;;;25.84;44.28;101277.59;4909731;28;96976;-78
2023/08/08 08:21:27;;;;;;;2.50;0.90;;;;;;;25.84;44.03;101275.69;4913794;28;97227;-78
2023/08/08 08:23:54;;;;;;;1.48;0.90;;;;;;;25.84;43.83;101275.69;4908367;28;99013;-78
2023/08/08 08:26:20;;;;;;;1.75;0.95;;;;;;;25.84;44.03;101275.69;4921560;28;96826;-78
2023/08/08 08:28:47;;;;;;;2.70;1.20;;;;;;;25.84;44.30;101275.69;4903370;28;96696;-78
2023/08/08 08:31:13;;;;;;;2.40;1.40;;;;;;;25.85;43.93;101268.28;4891562;28;96954;-78
2023/08/08 08:33:40;;;;;;;2.13;1.05;;;;;;;25.85;44.08;101265.53;4907448;28;96750;-78
2023/08/08 08:36:06;;;;;;;2.50;1.10;;;;;;;25.85;44.14;101266.38;4911542;28;99925;-78
2023/08/08 08:38:33;;;;;;;2.03;1.10;;;;;;;25.85;44.18;101274.63;4888246;28;96895;-78
2023/08/08 08:41:02;;;;;;;2.25;0.98;;;;;;;25.86;43.93;101267.25;4907143;28;96771;-78
2023/08/08 08:43:31;;;;;;;2.08;0.95;;;;;;;25.86;44.11;101267.25;4904875;28;97491;-78
2023/08/08 08:46:02;;;;;;;1.08;0.98;;;;;;;25.87;44.13;101266.19;4911230;28;96950;-78
2023/08/08 08:48:29;;;;;;;1.17;0.80;;;;;;;25.85;44.17;101271.88;4911593;28;97225;-78
2023/08/08 08:50:57;;;;;;;1.33;0.85;;;;;;;25.85;43.88;101274.63;4913013;28;96542;-78
2023/08/08 08:53:24;;;;;;;1.52;1.05;;;;;;;25.85;44.09;101266.38;4909409;28;97097;-78
2023/08/08 08:55:51;;;;;;;1.33;0.90;;;;;;;25.86;44.17;101265.34;4910584;28;98476;-78
2023/08/08 08:58:17;;;;;;;1.50;0.88;;;;;;;25.87;44.23;101269.78;4913006;28;97237;-78
2023/08/08 09:00:46;;;;;;;2.30;1.00;;;;;;;25.86;44.20;101276.34;4911783;28;97561;-78
2023/08/08 09:03:13;;;;;;;1.30;1.00;;;;;;;25.85;44.08;101271.88;4895787;28;97237;-78
2023/08/08 09:05:41;;;;;;;1.92;1.00;;;;;;;25.86;44.23;101270.84;4911937;28;96735;-78
2023/08/08 09:08:09;;;;;;;1.17;0.88;;;;;;;25.86;43.96;101270.84;4911816;28;96661;-78
2023/08/08 09:10:35;;;;;;;2.03;1.25;;;;;;;25.86;44.04;101272.75;4911311;28;96854;-78
2023/08/08 09:13:02;;;;;;;2.15;0.98;;;;;;;25.86;44.13;101273.59;4911509;28;96895;-78
2023/08/08 09:15:33;;;;;;;1.92;0.90;;;;;;;25.86;44.09;101275.50;4911152;28;96730;-78
2023/08/08 09:18:00;;;;;;;1.45;1.00;;;;;;;25.85;43.98;101266.38;4912887;28;96866;-78
2023/08/08 09:20:30;;;;;;;2.22;1.38;;;;;;;25.85;43.90;101269.13;4895054;28;96788;-78
2023/08/08 09:22:57;;;;;;;2.65;0.90;;;;;;;25.85;44.11;101263.63;4912977;28;96774;-78
2023/08/08 09:25:24;;;;;;;1.63;0.98;;;;;;;25.86;43.99;101259.84;4909219;28;96951;-78
2023/08/08 09:27:53;;;;;;;1.48;0.85;;;;;;;25.87;43.91;101261.53;4908265;28;97976;-78
2023/08/08 09:30:19;;;;;;;1.40;0.88;;;;;;;25.86;44.10;101259.84;4906606;28;96922;-78
2023/08/08 09:32:46;;;;;;;1.17;0.80;;;;;;;25.86;43.83;101268.09;4907025;28;96875;-78
2023/08/08 09:35:13;;;;;;;1.63;0.95;;;;;;;25.87;43.95;101272.53;4891240;28;98227;-78
2023/08/08 09:37:40;;;;;;;2.15;1.13;;;;;;;25.88;43.71;101267.88;4891920;28;97492;-77
2023/08/08 09:40:07;;;;;;;1.83;0.95;;;;;;;25.88;44.07;101266.00;4885877;28;96967;-78
2023/08/08 09:42:35;;;;;;;2.53;1.30;;;;;;;25.88;44.05;101270.63;4898607;28;97754;-78
2023/08/08 09:45:02;;;;;;;1.58;0.93;;;;;;;25.88;43.97;101267.88;4907971;28;96873;-78
2023/08/08 09:47:30;;;;;;;1.52;0.93;;;;;;;25.88;44.05;101254.13;4891481;28;97592;-78
2023/08/08 09:50:04;;;;;;;2.88;1.13;;;;;;;25.87;43.83;101267.03;4894439;28;96831;-78
2023/08/08 09:52:33;;;;;;;1.27;1.00;;;;;;;25.88;43.78;101278.91;4909457;28;96872;-79
2023/08/08 09:55:00;;;;;;;1.20;0.80;;;;;;;25.88;43.90;101267.88;4910019;28;99015;-78
2023/08/08 09:57:26;;;;;;;1.77;1.13;;;;;;;25.88;43.78;101271.50;4906118;28;96707;-78
2023/08/08 09:59:53;;;;;;;1.48;0.93;;;;;;;25.87;43.85;101283.56;4907158;28;96796;-78
2023/08/08 10:02:20;;;;;;;1.60;0.90;;;;;;;25.88;43.89;101282.50;4909127;28;96820;-78
2023/08/08 10:04:47;;;;;;;1.40;0.98;;;;;;;25.88;43.92;101282.50;4905690;28;97675;-79
2023/08/08 10:07:14;;;;;;;2.15;1.02;;;;;;;25.89;43.86;101278.69;4906905;28;97926;-78
2023/08/08 10:09:41;;;;;;;1.73;0.95;;;;;;;25.89;43.49;101284.19;4896401;28;97228;-78
2023/08/08 10:12:09;;;;;;;1.10;0.88;;;;;;;25.89;43.86;101286.94;4909982;28;96596;-78
2023/08/08 10:14:37;;;;;;;1.40;0.95;;;;;;;25.89;43.79;101284.19;4907192;28;97193;-78
2023/08/08 10:17:08;;;;;;;1.10;0.80;;;;;;;25.89;43.97;101281.44;4910602;28;98724;-77
2023/08/08 10:19:35;;;;;;;2.47;1.10;;;;;;;25.90;44.02;101285.06;4906505;28;98760;-78
2023/08/08 10:22:07;;;;;;;1.00;0.80;;;;;;;25.91;43.82;101284.84;4906995;28;97228;-78
2023/08/08 10:24:37;;;;;;;2.08;0.90;;;;;;;25.90;43.88;101280.41;4908675;28;96873;-78
2023/08/08 10:27:04;;;;;;;1.58;0.88;;;;;;;25.92;43.69;101282.94;4905608;28;96922;-78
2023/08/08 10:29:33;;;;;;;1.33;0.93;;;;;;;25.92;43.77;101280.19;4908498;28;96909;-78
2023/08/08 10:32:03;;;;;;;1.25;0.98;;;;;;;25.92;43.88;101283.81;4904867;28;96830;-77
2023/08/08 10:34:42;;;;;;;2.67;1.40;;;;;;;25.93;44.01;101282.75;4905916;28;97760;-78
2023/08/08 10:37:12;;;;;;;1.13;0.80;;;;;;;25.93;43.87;101284.66;4907224;28;99105;-78
2023/08/08 10:39:51;;;;;;;1.65;0.70;;;;;;;25.93;43.68;101285.50;4900917;28;97277;-78
2023/08/08 10:42:20;;;;;;;1.55;0.80;;;;;;;25.93;44.02;101282.75;4901313;28;96742;-78
2023/08/08 10:44:55;;;;;;;1.50;0.95;;;;;;;25.94;43.84;101289.09;4907431;28;96861;-78
2023/08/08 10:47:29;;;;;;;1.75;1.30;;;;;;;25.94;43.80;101289.09;4904637;28;97401;-78
2023/08/08 10:50:14;;;;;;;1.17;0.93;;;;;;;25.94;43.89;101286.34;4904973;28;97215;-79
2023/08/08 10:52:51;;;;;;;2.22;1.10;;;;;;;25.95;43.69;101288.06;4905216;28;97131;-79
2023/08/08 10:55:26;;;;;;;1.85;0.88;;;;;;;25.95;43.63;101279.81;4906545;28;97524;-79
2023/08/08 10:57:55;;;;;;;;;;;;;;;25.91;43.61;101281.25;4901775;28;97159;-78
2023/08/08 11:00:24;;;;;;;1.27;0.73;;;;;;;25.92;43.65;101281.06;4906298;28;96809;-78
2023/08/08 11:02:51;;;;;;;4.22;1.00;;;;;;;25.94;43.80;101289.09;4912403;28;96853;-77
2023/08/08 11:05:18;;;;;;;1.25;0.77;;;;;;;25.93;43.60;101288.25;4911180;28;96925;-78
2023/08/08 11:07:45;;;;;;;1.13;0.80;;;;;;;25.95;43.71;101277.06;4914333;28;96794;-78
2023/08/08 11:10:12;;;;;;;1.15;0.90;;;;;;;25.96;43.76;101278.75;4913636;28;98074;-78
2023/08/08 11:12:39;;;;;;;0.90;0.70;;;;;;;25.95;43.63;101277.91;4910704;28;96858;-78
2023/08/08 11:15:06;;;;;;;1.35;0.80;;;;;;;25.96;43.75;101285.09;4904789;28;97200;-78
2023/08/08 11:17:33;;;;;;;1.08;0.75;;;;;;;25.97;43.76;101274.94;4896810;28;98892;-78
2023/08/08 11:20:01;;;;;;;1.45;0.90;;;;;;;25.96;43.69;101274.09;4914310;28;96743;-78
2023/08/08 11:22:27;;;;;;;2.20;0.88;;;;;;;25.97;43.69;101273.03;4925822;28;96889;-78
2023/08/08 11:24:57;;;;;;;1.38;0.90;;;;;;;25.97;43.69;101273.03;4914083;28;98287;-78
2023/08/08 11:27:24;;;;;;;1.33;0.82;;;;;;;25.97;43.70;101270.28;4893634;28;100195;-78